Time;durP1;ratioP1;P1;durP2;ratioP2;P2;SDS_P1;SDS_P2;PMS_P1;PMS_P2;Temp;Humidity;BMP_temperature;BMP_pressure;BME280_temperature;BME280_humidity;BME280_pressure;Samples;Min_cycle;Max_cycle;Signal;HPM_P1;HPM_P2
2022/10/25 00:03:55;;;;;;;7.20;6.50;;;;;;;12.31;100.00;99269.08;422232;1274;142275;-72
2022/10/25 00:14:04;;;;;;;8.90;8.00;;;;;;;12.28;100.00;99262.94;420596;1272;141568;-73
2022/10/25 00:24:11;;;;;;;;;;;;;;;12.25;100.00;99255.98;420440;1281;143374;-72
2022/10/25 00:34:16;;;;;;;10.70;7.50;;;;;;;12.23;100.00;99264.75;420960;1272;132716;-73
2022/10/25 00:44:50;;;;;;;13.80;10.60;;;;;;;12.26;100.00;99269.11;420662;1272;145802;-71
2022/10/25 00:54:56;;;;;;;10.50;7.80;;;;;;;12.23;100.00;99280.70;420992;1279;145018;-72
2022/10/25 01:05:03;;;;;;;10.20;7.10;;;;;;;12.15;100.00;99275.48;420280;1275;179043;-72
2022/10/25 01:15:11;;;;;;;10.90;9.70;;;;;;;12.06;100.00;99262.17;419560;1275;143532;-71
2022/10/25 01:25:30;;;;;;;;;;;;;;;11.98;100.00;99251.83;421709;1274;143789;-71
2022/10/25 01:35:44;;;;;;;9.80;8.60;;;;;;;11.99;100.00;99251.91;421853;1275;129230;-72
2022/10/25 01:45:56;;;;;;;14.50;12.90;;;;;;;11.95;100.00;99234.85;419880;1275;142540;-72
2022/10/25 01:56:05;;;;;;;10.80;9.70;;;;;;;11.95;100.00;99238.59;421189;1274;142209;-73
2022/10/25 02:06:21;;;;;;;13.30;12.00;;;;;;;11.90;100.00;99243.14;420135;1274;142870;-72
2022/10/25 02:16:32;;;;;;;14.50;11.70;;;;;;;11.85;100.00;99233.66;421027;1274;143453;-72
2022/10/25 02:26:38;;;;;;;10.90;9.90;;;;;;;11.82;100.00;99228.51;421289;1274;143744;-72
2022/10/25 02:36:49;;;;;;;12.00;10.80;;;;;;;11.49;100.00;99232.80;421647;1272;187266;-71
2022/10/25 02:46:55;;;;;;;12.90;10.90;;;;;;;11.23;100.00;99233.15;421645;1272;142650;-72
2022/10/25 02:57:01;;;;;;;11.50;9.30;;;;;;;11.06;100.00;99244.14;420370;1279;143526;-73
2022/10/25 03:07:07;;;;;;;11.10;9.10;;;;;;;10.88;100.00;99240.55;420735;1272;143535;-72
2022/10/25 03:17:13;;;;;;;11.90;10.60;;;;;;;10.96;100.00;99231.56;420408;1279;143895;-71
2022/10/25 03:27:19;;;;;;;13.10;11.80;;;;;;;10.91;100.00;99226.49;420075;1272;144037;-72
2022/10/25 03:37:25;;;;;;;20.60;12.70;;;;;;;10.65;100.00;99226.52;420179;1272;143938;-72
2022/10/25 03:47:30;;;;;;;14.90;12.60;;;;;;;10.46;100.00;99217.66;419244;1275;199384;-71
2022/10/25 03:57:36;;;;;;;12.00;10.80;;;;;;;10.23;100.00;99223.96;420476;1272;144019;-72
2022/10/25 04:07:42;;;;;;;13.50;11.90;;;;;;;9.93;100.00;99237.52;424391;1272;145127;-73
2022/10/25 04:17:51;;;;;;;14.50;13.10;;;;;;;9.79;100.00;99254.34;435980;1273;143208;-73
2022/10/25 04:27:59;;;;;;;20.80;12.70;;;;;;;10.00;100.00;99250.36;434196;1278;142954;-72
2022/10/25 04:38:05;;;;;;;15.80;13.70;;;;;;;9.98;100.00;99245.38;421554;1272;147578;-71
2022/10/25 04:48:11;;;;;;;19.60;16.60;;;;;;;9.82;100.00;99246.59;418798;1274;142560;-72
2022/10/25 04:58:17;;;;;;;27.40;15.20;;;;;;;9.68;100.00;99241.23;433398;1279;143640;-72
2022/10/25 05:08:23;;;;;;;15.70;14.00;;;;;;;9.56;100.00;99240.25;435787;1280;143838;-72
2022/10/25 05:18:29;;;;;;;16.50;13.80;;;;;;;9.60;100.00;99241.92;436332;1280;143192;-72
2022/10/25 05:28:37;;;;;;;13.60;12.20;;;;;;;9.64;100.00;99253.20;436388;1281;144370;-73
2022/10/25 05:38:43;;;;;;;14.60;13.00;;;;;;;9.80;100.00;99261.24;435490;1281;143961;-73
2022/10/25 05:48:50;;;;;;;18.00;13.30;;;;;;;10.12;100.00;99266.68;436335;1280;143645;-73
2022/10/25 05:58:56;;;;;;;14.60;13.10;;;;;;;10.59;100.00;99269.96;436325;1281;142974;-73
2022/10/25 06:09:03;;;;;;;15.30;12.90;;;;;;;10.98;100.00;99276.55;435743;1282;144017;-71
2022/10/25 06:19:09;;;;;;;13.60;12.00;;;;;;;11.21;100.00;99289.52;436482;1284;143589;-72
2022/10/25 06:29:15;;;;;;;12.60;11.00;;;;;;;11.87;100.00;99300.34;436442;1282;143694;-73
2022/10/25 06:39:21;;;;;;;12.80;11.50;;;;;;;12.53;100.00;99305.98;435917;1281;144333;-72
2022/10/25 06:49:27;;;;;;;13.10;11.70;;;;;;;12.43;100.00;99316.41;436447;1281;144439;-72
2022/10/25 06:59:33;;;;;;;12.80;11.50;;;;;;;12.35;100.00;99322.11;435762;1289;143208;-73
2022/10/25 07:09:39;;;;;;;11.40;9.70;;;;;;;12.63;100.00;99319.63;436583;1284;199933;-74
2022/10/25 07:19:44;;;;;;;8.10;7.40;;;;;;;15.82;99.77;99328.70;436712;1284;144906;-71
2022/10/25 07:29:50;;;;;;;6.70;6.00;;;;;;;20.53;93.03;99322.45;435993;1285;144321;-64
2022/10/25 07:39:56;;;;;;;6.50;5.90;;;;;;;22.37;85.64;99321.48;436684;1281;145254;-65
2022/10/25 07:50:02;;;;;;;8.50;4.70;;;;;;;24.74;78.27;99311.55;436753;1284;143297;-64
2022/10/25 08:00:10;;;;;;;4.90;4.40;;;;;;;25.54;74.49;99313.77;435953;1289;143469;-64
2022/10/25 08:10:18;;;;;;;4.80;4.40;;;;;;;26.87;68.74;99331.00;436732;1281;143386;-65
2022/10/25 08:20:23;;;;;;;4.80;4.00;;;;;;;25.05;65.93;99338.26;436024;1287;141840;-64
2022/10/25 08:30:49;;;;;;;6.00;4.80;;;;;;;26.56;64.30;99334.70;436789;1281;141755;-64
2022/10/25 08:40:56;;;;;;;;;;;;;;;28.00;60.63;99337.96;436774;1280;144558;-65
2022/10/25 08:51:05;;;;;;;5.40;3.60;;;;;;;28.73;58.09;99341.31;436271;1280;128243;-65
2022/10/25 09:01:16;;;;;;;4.00;3.20;;;;;;;28.93;56.01;99337.33;436688;1281;145024;-64
2022/10/25 09:11:36;;;;;;;5.10;3.00;;;;;;;27.23;55.79;99340.84;436178;1284;144584;-65
2022/10/25 09:21:48;;;;;;;5.10;3.70;;;;;;;24.56;57.18;99343.95;436774;1279;144442;-64
2022/10/25 09:31:58;;;;;;;4.10;3.30;;;;;;;22.66;58.96;99345.98;436732;1286;142011;-66
2022/10/25 09:42:06;;;;;;;5.20;2.90;;;;;;;21.09;61.05;99357.30;435984;1282;142685;-66
2022/10/25 09:52:19;;;;;;;6.60;3.90;;;;;;;19.93;63.24;99355.13;436717;1287;142570;-65
2022/10/25 10:02:26;;;;;;;5.30;2.90;;;;;;;19.40;64.46;99346.98;436012;1286;143118;-65
2022/10/25 10:12:42;;;;;;;6.70;3.70;;;;;;;18.58;65.48;99350.08;436740;1287;141615;-65
2022/10/25 10:22:53;;;;;;;4.30;2.30;;;;;;;17.58;67.04;99353.27;436757;1279;143644;-66
2022/10/25 10:33:02;;;;;;;6.30;2.70;;;;;;;17.16;68.80;99359.05;435960;1286;142632;-65
2022/10/25 10:43:27;;;;;;;5.90;2.80;;;;;;;16.88;69.72;99356.83;436708;1281;141611;-65
2022/10/25 10:53:33;;;;;;;8.40;3.30;;;;;;;16.74;70.74;99360.71;435986;1281;143218;-65
2022/10/25 11:03:48;;;;;;;7.20;2.80;;;;;;;16.73;71.34;99363.23;436745;1287;143280;-65
2022/10/25 11:14:12;;;;;;;9.90;2.70;;;;;;;16.85;71.79;99365.17;436699;1280;143467;-65
2022/10/25 11:24:29;;;;;;;9.10;3.20;;;;;;;17.22;71.53;99359.71;435794;1285;143252;-66
2022/10/25 11:34:44;;;;;;;5.90;2.30;;;;;;;17.12;71.26;99354.30;436661;1282;143179;-66
2022/10/25 11:45:15;;;;;;;9.70;4.00;;;;;;;17.27;71.73;99357.11;435987;1284;143730;-66
2022/10/25 11:55:34;;;;;;;8.30;2.70;;;;;;;17.27;71.60;99359.59;436718;1288;142771;-65
2022/10/25 12:05:48;;;;;;;6.10;3.20;;;;;;;17.07;71.37;99356.20;435956;1282;143832;-66
2022/10/25 12:15:56;;;;;;;6.70;2.00;;;;;;;17.00;71.42;99364.30;436676;1285;142774;-66
2022/10/25 12:26:12;;;;;;;7.20;2.10;;;;;;;16.97;70.98;99375.89;436745;1284;142105;-66
2022/10/25 12:36:26;;;;;;;7.20;3.90;;;;;;;16.60;70.93;99381.26;435754;1281;142461;-66
2022/10/25 12:46:51;;;;;;;5.30;2.90;;;;;;;16.24;71.12;99377.45;436721;1282;142502;-65
2022/10/25 12:57:07;;;;;;;4.80;3.60;;;;;;;16.00;71.62;99378.90;435966;1281;142000;-66
2022/10/25 13:07:15;;;;;;;3.30;2.40;;;;;;;16.00;72.01;99385.06;436456;1282;261852;-64
2022/10/25 13:17:57;;;;;;;7.30;3.20;;;;;;;16.09;72.24;99389.70;434231;1281;144714;-66
2022/10/25 13:28:30;;;;;;;9.10;2.90;;;;;;;16.18;71.98;99402.00;436675;1284;142441;-65
2022/10/25 13:38:40;;;;;;;4.30;1.80;;;;;;;16.14;71.81;99406.41;436009;1280;143532;-66
2022/10/25 13:48:46;;;;;;;4.70;1.70;;;;;;;15.89;71.96;99409.34;436699;1274;142858;-65
2022/10/25 13:58:53;;;;;;;3.60;2.20;;;;;;;15.63;72.30;99419.69;436690;1281;141855;-66
2022/10/25 14:09:07;;;;;;;3.90;2.60;;;;;;;15.38;72.97;99416.22;435979;1282;142362;-66
2022/10/25 14:19:19;;;;;;;10.60;4.90;;;;;;;15.36;74.01;99421.89;427975;1274;142268;-65
2022/10/25 14:29:27;;;;;;;5.50;2.80;;;;;;;15.58;74.36;99426.52;435981;1281;147125;-66
2022/10/25 14:39:33;;;;;;;4.50;2.30;;;;;;;15.37;74.37;99439.38;436704;1274;145420;-66
2022/10/25 14:49:39;;;;;;;4.20;2.30;;;;;;;14.84;74.97;99444.92;436724;1280;142143;-65
2022/10/25 14:59:49;;;;;;;6.60;2.60;;;;;;;14.41;75.98;99445.77;435938;1282;142975;-64
2022/10/25 15:09:57;;;;;;;3.90;2.20;;;;;;;14.02;76.76;99440.36;436567;1281;142651;-65
2022/10/25 15:20:26;;;;;;;7.00;3.10;;;;;;;13.58;77.53;99444.30;436445;1275;141844;-65
2022/10/25 15:30:38;;;;;;;7.30;3.30;;;;;;;13.12;78.36;99451.67;435957;1281;142009;-65
2022/10/25 15:40:44;;;;;;;9.10;4.10;;;;;;;12.76;79.02;99462.62;436446;1282;144094;-65
2022/10/25 15:50:52;;;;;;;5.90;3.60;;;;;;;12.47;79.62;99473.74;435682;1283;144200;-65
2022/10/25 16:00:57;;;;;;;;;;;;;;;12.26;80.56;99490.73;436493;1281;142102;-65
2022/10/25 16:11:03;;;;;;;15.60;8.00;;;;;;;12.24;81.11;99494.87;436634;1281;128692;-66
2022/10/25 16:21:09;;;;;;;26.60;14.90;;;;;;;11.99;81.40;99496.69;435674;1281;143682;-65
2022/10/25 16:31:15;;;;;;;34.80;20.30;;;;;;;11.64;82.16;99496.64;436409;1274;142088;-66
2022/10/25 16:41:25;;;;;;;28.10;16.40;;;;;;;11.38;83.06;99502.08;436325;1274;143324;-67
2022/10/25 16:51:33;;;;;;;19.70;13.30;;;;;;;11.21;83.72;99509.91;436129;1282;198110;-66
2022/10/25 17:01:39;;;;;;;21.30;11.80;;;;;;;11.11;84.55;99518.14;436427;1280;142977;-66
2022/10/25 17:11:49;;;;;;;18.80;14.50;;;;;;;11.19;85.28;99517.59;435865;1278;143223;-65
2022/10/25 17:21:56;;;;;;;16.50;10.20;;;;;;;11.14;85.50;99521.04;436700;1281;143116;-65
2022/10/25 17:32:01;;;;;;;13.30;11.20;;;;;;;10.94;86.02;99529.56;426845;1281;143013;-66
2022/10/25 17:42:07;;;;;;;22.50;14.90;;;;;;;10.75;86.64;99548.85;435551;1282;144099;-65
2022/10/25 17:52:13;;;;;;;20.50;14.70;;;;;;;10.73;87.19;99554.56;436667;1284;143219;-68
2022/10/25 18:02:19;;;;;;;25.50;14.30;;;;;;;10.73;87.50;99554.23;428248;1275;145239;-66
2022/10/25 18:12:25;;;;;;;11.60;9.90;;;;;;;10.60;87.80;99549.11;429891;1275;143546;-65
2022/10/25 18:22:31;;;;;;;13.30;9.20;;;;;;;10.59;88.57;99555.82;428363;1274;141466;-65
2022/10/25 18:32:37;;;;;;;9.70;6.50;;;;;;;10.65;89.02;99557.21;429909;1282;143694;-66
2022/10/25 18:42:43;;;;;;;11.50;7.60;;;;;;;10.73;89.22;99565.42;436662;1281;142763;-66
2022/10/25 18:52:49;;;;;;;15.10;8.60;;;;;;;10.74;89.35;99565.54;425529;1275;143060;-66
2022/10/25 19:02:55;;;;;;;9.10;6.20;;;;;;;10.77;89.45;99572.00;435909;1281;143025;-66
2022/10/25 19:13:00;;;;;;;5.70;4.60;;;;;;;10.86;89.82;99577.58;436770;1285;142498;-64
2022/10/25 19:23:07;;;;;;;7.80;6.40;;;;;;;10.93;89.94;99589.02;430347;1284;140789;-64
2022/10/25 19:33:12;;;;;;;7.80;5.60;;;;;;;10.95;89.96;99600.80;421281;1282;141767;-65
2022/10/25 19:43:18;;;;;;;8.60;5.70;;;;;;;10.89;89.96;99597.88;432906;1281;147158;-65
2022/10/25 19:53:24;;;;;;;6.30;3.80;;;;;;;10.78;90.09;99604.34;433039;1281;142631;-66
2022/10/25 20:03:30;;;;;;;8.60;4.10;;;;;;;10.68;90.12;99608.15;422636;1274;141773;-65
2022/10/25 20:13:36;;;;;;;10.20;4.80;;;;;;;10.58;90.18;99602.14;421360;1282;142048;-66
2022/10/25 20:23:48;;;;;;;9.60;5.20;;;;;;;10.24;90.20;99614.14;430353;1275;144150;-66
2022/10/25 20:33:54;;;;;;;9.00;5.50;;;;;;;9.92;90.53;99637.27;420647;1275;143273;-65
2022/10/25 20:44:02;;;;;;;6.30;5.10;;;;;;;9.60;91.10;99642.47;427154;1276;141688;-65
2022/10/25 20:54:09;;;;;;;6.80;5.80;;;;;;;9.36;91.53;99646.14;424037;1275;142262;-65
2022/10/25 21:04:15;;;;;;;7.60;5.50;;;;;;;9.13;91.87;99645.02;429455;1281;142653;-65
2022/10/25 21:14:40;;;;;;;7.10;6.30;;;;;;;8.88;92.28;99645.18;435972;1274;143359;-65
2022/10/25 21:24:46;;;;;;;7.10;6.50;;;;;;;8.71;92.71;99648.38;430480;1283;142432;-65
2022/10/25 21:34:52;;;;;;;8.90;6.40;;;;;;;8.55;92.78;99642.46;436734;1281;143865;-66
2022/10/25 21:44:57;;;;;;;9.20;7.40;;;;;;;8.37;92.96;99646.70;435987;1281;144019;-65
2022/10/25 21:55:03;;;;;;;10.90;9.00;;;;;;;8.26;93.46;99654.79;436662;1274;143832;-65
2022/10/25 22:05:10;;;;;;;8.20;7.30;;;;;;;8.29;93.65;99654.08;422508;1275;145445;-65
2022/10/25 22:15:16;;;;;;;9.80;8.80;;;;;;;8.17;93.64;99661.16;436002;1284;141977;-65
2022/10/25 22:25:21;;;;;;;14.40;11.00;;;;;;;8.06;93.85;99661.23;436743;1282;142687;-66
2022/10/25 22:35:27;;;;;;;13.40;10.30;;;;;;;8.05;94.05;99659.52;435977;1287;143649;-66
2022/10/25 22:45:35;;;;;;;10.50;9.30;;;;;;;8.03;94.05;99663.69;430794;1283;142660;-66
2022/10/25 22:55:39;;;;;;;;;;;;;;;7.82;93.94;99664.55;436722;1276;143783;-65
2022/10/25 23:05:45;;;;;;;15.10;12.50;;;;;;;7.64;93.82;99662.86;421737;1290;128439;-65
